createdAt,value
2018-12-01T00:00:22.092Z,1017.6
2018-12-01T00:01:22.227Z,1017.56
2018-12-01T00:02:22.060Z,1017.6
2018-12-01T00:03:22.309Z,1017.62
2018-12-01T00:04:22.249Z,1017.6
2018-12-01T00:05:22.897Z,1017.55
2018-12-01T00:06:22.270Z,1017.57
2018-12-01T00:07:22.156Z,1017.58
2018-12-01T00:08:22.261Z,1017.57
2018-12-01T00:09:22.080Z,1017.58
2018-12-01T00:10:22.274Z,1017.57
2018-12-01T00:11:22.112Z,1017.55
2018-12-01T00:12:22.131Z,1017.58
2018-12-01T00:13:22.060Z,1017.51
2018-12-01T00:14:22.047Z,1017.52
2018-12-01T00:15:22.121Z,1017.55
2018-12-01T00:16:22.069Z,1017.54
2018-12-01T00:17:22.030Z,1017.58
2018-12-01T00:18:22.042Z,1017.61
2018-12-01T00:19:22.046Z,1017.58
2018-12-01T00:20:22.072Z,1017.61
2018-12-01T00:21:22.081Z,1017.56
2018-12-01T00:22:22.307Z,1017.63
2018-12-01T00:23:22.058Z,1017.64
2018-12-01T00:24:22.023Z,1017.66
2018-12-01T00:25:22.075Z,1017.62
2018-12-01T00:26:22.080Z,1017.61
2018-12-01T00:27:22.089Z,1017.59
2018-12-01T00:28:22.032Z,1017.58
2018-12-01T00:29:22.084Z,1017.59
2018-12-01T00:30:22.076Z,1017.59
2018-12-01T00:31:22.119Z,1017.61
2018-12-01T00:32:22.055Z,1017.6
2018-12-01T00:33:22.072Z,1017.58
2018-12-01T00:34:22.085Z,1017.59
2018-12-01T00:35:22.040Z,1017.56
2018-12-01T00:36:22.370Z,1017.49
2018-12-01T00:37:22.073Z,1017.51
2018-12-01T00:38:22.239Z,1017.55
2018-12-01T00:39:22.110Z,1017.54
2018-12-01T00:40:22.175Z,1017.57
2018-12-01T00:41:22.066Z,1017.54
2018-12-01T00:42:22.011Z,1017.57
2018-12-01T00:43:22.114Z,1017.62
2018-12-01T00:44:22.105Z,1017.58
2018-12-01T00:45:22.354Z,1017.62
2018-12-01T00:46:22.165Z,1017.6
2018-12-01T00:47:22.264Z,1017.57
2018-12-01T00:48:22.741Z,1017.51
2018-12-01T00:49:21.982Z,1017.52
2018-12-01T00:50:22.110Z,1017.56
2018-12-01T00:51:22.099Z,1017.6
2018-12-01T00:52:22.208Z,1017.55
2018-12-01T00:53:21.983Z,1017.56
2018-12-01T00:54:22.037Z,1017.6
2018-12-01T00:55:22.229Z,1017.67
2018-12-01T00:56:22.382Z,1017.6
2018-12-01T00:57:22.163Z,1017.68
2018-12-01T00:58:22.230Z,1017.67
2018-12-01T00:59:22.099Z,1017.65
2018-12-01T01:00:22.031Z,1017.65
2018-12-01T01:01:21.979Z,1017.7
2018-12-01T01:02:22.129Z,1017.71
2018-12-01T01:03:22.118Z,1017.74
2018-12-01T01:04:21.995Z,1017.74
2018-12-01T01:05:22.124Z,1017.76
2018-12-01T01:06:22.043Z,1017.8
2018-12-01T01:07:22.088Z,1017.84
2018-12-01T01:08:21.985Z,1017.83
2018-12-01T01:09:22.076Z,1017.87
2018-12-01T01:10:22.360Z,1017.91
2018-12-01T01:11:22.283Z,1017.86
2018-12-01T01:12:21.994Z,1017.89
2018-12-01T01:13:22.298Z,1017.88
2018-12-01T01:14:22.135Z,1017.91
2018-12-01T01:15:22.065Z,1017.88
2018-12-01T01:16:22.457Z,1017.84
2018-12-01T01:17:22.126Z,1017.9
2018-12-01T01:18:22.108Z,1017.87
2018-12-01T01:19:22.199Z,1017.84
2018-12-01T01:20:22.552Z,1017.88
2018-12-01T01:21:22.059Z,1017.87
2018-12-01T01:22:22.334Z,1017.87
2018-12-01T01:23:25.103Z,1017.87
2018-12-01T01:24:22.353Z,1017.87
2018-12-01T01:25:22.417Z,1017.9
2018-12-01T01:26:22.102Z,1017.9
2018-12-01T01:27:22.358Z,1017.94
2018-12-01T01:28:22.152Z,1017.96
2018-12-01T01:29:22.013Z,1017.92
2018-12-01T01:30:22.096Z,1017.93
2018-12-01T01:31:22.200Z,1017.92
2018-12-01T01:32:22.040Z,1017.94
2018-12-01T01:33:22.299Z,1017.92
2018-12-01T01:34:22.013Z,1017.91
2018-12-01T01:35:22.210Z,1017.89
2018-12-01T01:36:22.035Z,1017.9
2018-12-01T01:37:22.037Z,1017.88
2018-12-01T01:38:22.114Z,1017.92
2018-12-01T01:39:22.021Z,1017.96
2018-12-01T01:40:22.048Z,1017.91
2018-12-01T01:41:22.186Z,1017.94
2018-12-01T01:42:21.939Z,1017.99
2018-12-01T01:43:22.011Z,1017.94
2018-12-01T01:44:22.310Z,1017.96
2018-12-01T01:45:22.047Z,1017.93
2018-12-01T01:46:22.010Z,1017.97
2018-12-01T01:47:22.071Z,1017.99
2018-12-01T01:48:22.291Z,1018.04
2018-12-01T01:49:22.113Z,1018.04
2018-12-01T01:50:21.937Z,1018.08
2018-12-01T01:51:21.944Z,1018.05
2018-12-01T01:52:21.971Z,1018.05
2018-12-01T01:53:21.928Z,1018.08
2018-12-01T01:54:21.973Z,1018.07
2018-12-01T01:55:21.972Z,1018.08
2018-12-01T01:56:21.932Z,1018.03
2018-12-01T01:57:21.965Z,1018.02
2018-12-01T01:58:21.960Z,1018.05
2018-12-01T01:59:21.978Z,1018
2018-12-01T02:00:22.049Z,1018.01
2018-12-01T02:01:22.077Z,1018.01
2018-12-01T02:02:21.945Z,1017.97
2018-12-01T02:03:21.952Z,1017.98
2018-12-01T02:04:22.010Z,1017.95
2018-12-01T02:05:21.918Z,1017.98
2018-12-01T02:06:21.948Z,1017.95
2018-12-01T02:07:21.955Z,1017.92
2018-12-01T02:08:22.003Z,1017.94
2018-12-01T02:09:21.972Z,1017.93
2018-12-01T02:10:22.409Z,1017.95
2018-12-01T02:11:21.935Z,1017.89
2018-12-01T02:12:21.929Z,1017.91
2018-12-01T02:13:22.197Z,1017.88
2018-12-01T02:14:21.957Z,1017.87
2018-12-01T02:15:22.094Z,1017.91
2018-12-01T02:16:22.145Z,1017.91
2018-12-01T02:17:22.282Z,1017.95
2018-12-01T02:18:21.981Z,1017.95
2018-12-01T02:19:22.141Z,1017.95
2018-12-01T02:20:21.969Z,1017.96
2018-12-01T02:21:22.065Z,1017.93
2018-12-01T02:22:21.956Z,1017.96
2018-12-01T02:23:22.020Z,1017.98
2018-12-01T02:24:21.912Z,1017.97
2018-12-01T02:25:22.017Z,1017.95
2018-12-01T02:26:22.171Z,1017.95
2018-12-01T02:27:21.958Z,1018.01
2018-12-01T02:28:21.948Z,1017.93
2018-12-01T02:29:22.218Z,1017.92
2018-12-01T02:30:22.390Z,1017.96
2018-12-01T02:31:21.890Z,1017.98
2018-12-01T02:32:21.936Z,1017.98
2018-12-01T02:33:21.939Z,1017.95
2018-12-01T02:34:22.130Z,1017.92
2018-12-01T02:35:21.997Z,1017.89
2018-12-01T02:36:22.076Z,1017.9
2018-12-01T02:37:22.266Z,1017.89
2018-12-01T02:38:22.186Z,1017.89
2018-12-01T02:39:22.099Z,1017.92
2018-12-01T02:40:22.018Z,1017.9
2018-12-01T02:41:22.038Z,1017.9
2018-12-01T02:42:21.985Z,1017.92
2018-12-01T02:43:22.177Z,1017.92
2018-12-01T02:44:22.187Z,1017.9
2018-12-01T02:45:21.878Z,1017.91
2018-12-01T02:46:21.914Z,1017.94
2018-12-01T02:47:21.834Z,1017.93
2018-12-01T02:48:21.940Z,1017.92
2018-12-01T02:49:21.892Z,1017.92
2018-12-01T02:50:21.915Z,1017.89
2018-12-01T02:51:21.991Z,1017.84
2018-12-01T02:52:22.125Z,1017.89
2018-12-01T02:53:22.286Z,1017.84
2018-12-01T02:54:21.974Z,1017.86
2018-12-01T02:55:22.055Z,1017.86
2018-12-01T02:56:22.129Z,1017.84
2018-12-01T02:57:22.007Z,1017.88
2018-12-01T02:58:21.979Z,1017.82
2018-12-01T02:59:22.167Z,1017.79
2018-12-01T03:00:22.207Z,1017.84
2018-12-01T03:01:22.216Z,1017.77
2018-12-01T03:02:22.000Z,1017.79
2018-12-01T03:03:22.126Z,1017.81
2018-12-01T03:04:21.995Z,1017.84
2018-12-01T03:05:22.026Z,1017.79
2018-12-01T03:06:21.980Z,1017.76
2018-12-01T03:07:21.977Z,1017.79
2018-12-01T03:08:22.173Z,1017.76
2018-12-01T03:09:21.860Z,1017.78
2018-12-01T03:10:21.979Z,1017.79
2018-12-01T03:11:22.077Z,1017.76
2018-12-01T03:12:22.007Z,1017.77
2018-12-01T03:13:21.979Z,1017.76
2018-12-01T03:14:21.965Z,1017.78
2018-12-01T03:15:21.872Z,1017.74
2018-12-01T03:16:22.000Z,1017.7
2018-12-01T03:17:21.912Z,1017.71
2018-12-01T03:18:22.015Z,1017.69
2018-12-01T03:19:21.820Z,1017.73
2018-12-01T03:20:22.131Z,1017.7
2018-12-01T03:21:22.195Z,1017.69
2018-12-01T03:22:21.978Z,1017.7
2018-12-01T03:23:22.003Z,1017.76
2018-12-01T03:24:21.855Z,1017.76
2018-12-01T03:25:21.922Z,1017.72
2018-12-01T03:26:21.824Z,1017.73
2018-12-01T03:27:22.056Z,1017.71
2018-12-01T03:28:22.015Z,1017.72
2018-12-01T03:29:22.211Z,1017.73
2018-12-01T03:30:21.834Z,1017.73
2018-12-01T03:31:21.783Z,1017.78
2018-12-01T03:32:21.808Z,1017.76
2018-12-01T03:33:21.878Z,1017.82
2018-12-01T03:34:21.812Z,1017.85
2018-12-01T03:35:21.822Z,1017.85
2018-12-01T03:36:22.385Z,1017.86
2018-12-01T03:37:21.800Z,1017.84
2018-12-01T03:38:22.059Z,1017.81
2018-12-01T03:39:21.830Z,1017.91
2018-12-01T03:40:22.049Z,1017.86
2018-12-01T03:41:21.795Z,1017.87
2018-12-01T03:42:21.934Z,1017.81
2018-12-01T03:43:21.820Z,1017.86
2018-12-01T03:44:21.810Z,1017.87
2018-12-01T03:45:21.933Z,1017.81
2018-12-01T03:46:21.805Z,1017.88
2018-12-01T03:47:21.815Z,1017.83
2018-12-01T03:48:21.788Z,1017.83
2018-12-01T03:49:21.899Z,1017.75
2018-12-01T03:50:21.795Z,1017.82
2018-12-01T03:51:21.894Z,1017.85
2018-12-01T03:52:21.974Z,1017.89
2018-12-01T03:53:21.952Z,1017.84
2018-12-01T03:54:21.781Z,1017.85
2018-12-01T03:55:21.939Z,1017.84
2018-12-01T03:56:21.773Z,1017.89
2018-12-01T03:57:21.817Z,1017.86
2018-12-01T03:58:21.983Z,1017.87
2018-12-01T03:59:21.824Z,1017.93
2018-12-01T04:00:21.998Z,1017.89
2018-12-01T04:01:22.272Z,1017.91
2018-12-01T04:02:21.891Z,1017.9
2018-12-01T04:03:21.826Z,1017.92
2018-12-01T04:04:21.743Z,1017.87
2018-12-01T04:05:21.807Z,1017.87
2018-12-01T04:06:21.758Z,1017.91
2018-12-01T04:07:21.813Z,1017.89
2018-12-01T04:08:21.927Z,1017.95
2018-12-01T04:09:21.811Z,1017.91
2018-12-01T04:10:21.739Z,1017.98
2018-12-01T04:11:22.005Z,1017.98
2018-12-01T04:12:22.022Z,1018
2018-12-01T04:13:21.878Z,1017.98
2018-12-01T04:14:22.043Z,1017.96
2018-12-01T04:15:21.875Z,1017.94
2018-12-01T04:16:21.792Z,1018.01
2018-12-01T04:17:21.936Z,1018.02
2018-12-01T04:18:21.918Z,1017.98
2018-12-01T04:19:21.783Z,1018.01
2018-12-01T04:20:21.735Z,1017.99
2018-12-01T04:21:21.864Z,1017.99
2018-12-01T04:22:21.740Z,1017.98
2018-12-01T04:23:21.942Z,1017.95
2018-12-01T04:24:21.783Z,1017.98
2018-12-01T04:25:21.715Z,1017.96
2018-12-01T04:26:21.829Z,1018
2018-12-01T04:27:21.916Z,1017.94
2018-12-01T04:28:21.881Z,1017.95
2018-12-01T04:29:22.030Z,1017.99
2018-12-01T04:30:22.024Z,1017.99
2018-12-01T04:31:21.802Z,1018
2018-12-01T04:32:21.984Z,1017.98
2018-12-01T04:33:22.001Z,1017.98
2018-12-01T04:34:21.788Z,1017.95
2018-12-01T04:35:21.735Z,1017.93
2018-12-01T04:36:21.769Z,1017.92
2018-12-01T04:37:21.823Z,1017.95
2018-12-01T04:38:21.900Z,1017.93
2018-12-01T04:39:21.728Z,1017.94
2018-12-01T04:40:21.829Z,1017.93
2018-12-01T04:41:21.825Z,1017.93
2018-12-01T04:42:21.955Z,1017.95
2018-12-01T04:43:21.765Z,1017.96
2018-12-01T04:44:21.891Z,1017.96
2018-12-01T04:45:21.755Z,1018.03
2018-12-01T04:46:22.046Z,1018.05
2018-12-01T04:47:21.723Z,1018.04
2018-12-01T04:48:21.822Z,1018.03
2018-12-01T04:49:21.728Z,1018.06
2018-12-01T04:50:21.740Z,1018.1
2018-12-01T04:51:21.894Z,1017.98
2018-12-01T04:52:21.818Z,1018.06
2018-12-01T04:53:21.786Z,1018.02
2018-12-01T04:54:21.692Z,1018.06
2018-12-01T04:55:22.116Z,1018.02
2018-12-01T04:56:21.705Z,1018.04
2018-12-01T04:57:22.532Z,1018.08
2018-12-01T04:58:21.792Z,1018.06
2018-12-01T04:59:21.867Z,1018.02
2018-12-01T05:00:21.941Z,1018.06
2018-12-01T05:01:21.895Z,1018.09
2018-12-01T05:02:21.721Z,1018.11
2018-12-01T05:03:21.687Z,1018.19
2018-12-01T05:04:21.782Z,1018.22
2018-12-01T05:05:21.821Z,1018.23
2018-12-01T05:06:21.681Z,1018.19
2018-12-01T05:07:21.671Z,1018.2
2018-12-01T05:08:21.688Z,1018.19
2018-12-01T05:09:21.694Z,1018.17
2018-12-01T05:10:21.689Z,1018.19
2018-12-01T05:11:21.661Z,1018.21
2018-12-01T05:12:21.704Z,1018.12
2018-12-01T05:13:21.796Z,1018.13
2018-12-01T05:14:21.664Z,1018.16
2018-12-01T05:15:22.029Z,1018.12
2018-12-01T05:16:21.922Z,1018.09
2018-12-01T05:17:21.671Z,1018.08
2018-12-01T05:18:21.656Z,1018.11
2018-12-01T05:19:21.759Z,1018.06
2018-12-01T05:20:21.709Z,1018.08
2018-12-01T05:21:21.646Z,1018.11
2018-12-01T05:22:21.673Z,1018.08
2018-12-01T05:23:21.730Z,1018.16
2018-12-01T05:24:21.634Z,1018.15
2018-12-01T05:25:21.693Z,1018.1
2018-12-01T05:26:21.703Z,1018.12
2018-12-01T05:27:22.021Z,1018.16
2018-12-01T05:28:21.621Z,1018.19
2018-12-01T05:29:21.734Z,1018.23
2018-12-01T05:30:21.696Z,1018.26
2018-12-01T05:31:21.744Z,1018.31
2018-12-01T05:32:21.705Z,1018.26
2018-12-01T05:33:21.843Z,1018.28
2018-12-01T05:34:21.721Z,1018.28
2018-12-01T05:35:21.651Z,1018.29
2018-12-01T05:36:21.676Z,1018.29
2018-12-01T05:37:22.090Z,1018.21
2018-12-01T05:38:22.492Z,1018.29
2018-12-01T05:39:21.819Z,1018.3
2018-12-01T05:40:21.677Z,1018.31
2018-12-01T05:41:21.823Z,1018.34
2018-12-01T05:42:21.823Z,1018.37
2018-12-01T05:43:21.789Z,1018.39
2018-12-01T05:44:21.674Z,1018.39
2018-12-01T05:45:21.699Z,1018.43
2018-12-01T05:46:21.732Z,1018.45
2018-12-01T05:47:21.638Z,1018.44
2018-12-01T05:48:21.918Z,1018.49
2018-12-01T05:49:22.228Z,1018.47
2018-12-01T05:50:21.631Z,1018.52
2018-12-01T05:51:21.710Z,1018.52
2018-12-01T05:52:21.822Z,1018.56
2018-12-01T05:53:21.750Z,1018.56
2018-12-01T05:54:21.742Z,1018.51
2018-12-01T05:55:21.670Z,1018.56
2018-12-01T05:56:21.613Z,1018.56
2018-12-01T05:57:21.737Z,1018.57
2018-12-01T05:58:21.745Z,1018.59
2018-12-01T05:59:21.672Z,1018.63
2018-12-01T06:00:22.038Z,1018.58
2018-12-01T06:01:21.584Z,1018.58
2018-12-01T06:02:21.678Z,1018.59
2018-12-01T06:03:22.005Z,1018.58
2018-12-01T06:04:21.653Z,1018.59
2018-12-01T06:05:21.654Z,1018.59
2018-12-01T06:06:21.665Z,1018.62
2018-12-01T06:07:21.769Z,1018.61
2018-12-01T06:08:21.634Z,1018.63
2018-12-01T06:09:21.660Z,1018.61
2018-12-01T06:10:22.216Z,1018.64
2018-12-01T06:11:21.688Z,1018.68
2018-12-01T06:12:21.890Z,1018.67
2018-12-01T06:13:21.791Z,1018.71
2018-12-01T06:14:21.748Z,1018.73
2018-12-01T06:15:21.758Z,1018.68
2018-12-01T06:16:21.998Z,1018.75
2018-12-01T06:17:21.621Z,1018.73
2018-12-01T06:18:21.750Z,1018.76
2018-12-01T06:19:21.731Z,1018.75
2018-12-01T06:20:21.643Z,1018.73
2018-12-01T06:21:21.624Z,1018.75
2018-12-01T06:22:21.628Z,1018.76
2018-12-01T06:23:21.728Z,1018.8
2018-12-01T06:24:21.713Z,1018.8
2018-12-01T06:25:21.680Z,1018.84
2018-12-01T06:26:21.761Z,1018.86
2018-12-01T06:27:21.624Z,1018.86
2018-12-01T06:28:21.766Z,1018.86
2018-12-01T06:29:22.240Z,1018.87
2018-12-01T06:30:21.569Z,1018.91
2018-12-01T06:31:21.945Z,1018.86
2018-12-01T06:32:21.668Z,1018.88
2018-12-01T06:33:21.623Z,1018.86
2018-12-01T06:34:21.735Z,1018.87
2018-12-01T06:35:21.757Z,1018.88
2018-12-01T06:36:21.587Z,1018.89
2018-12-01T06:37:21.768Z,1018.94
2018-12-01T06:38:21.641Z,1018.91
2018-12-01T06:39:21.716Z,1018.89
2018-12-01T06:40:21.691Z,1018.91
2018-12-01T06:41:21.582Z,1018.9
2018-12-01T06:42:21.604Z,1018.91
2018-12-01T06:43:21.566Z,1018.93
2018-12-01T06:44:21.558Z,1018.96
2018-12-01T06:45:21.597Z,1018.96
2018-12-01T06:46:21.568Z,1018.96
2018-12-01T06:47:21.536Z,1019
2018-12-01T06:48:21.598Z,1018.97
2018-12-01T06:49:21.654Z,1018.94
2018-12-01T06:50:21.815Z,1018.97
2018-12-01T06:51:21.550Z,1018.93
2018-12-01T06:52:21.552Z,1018.93
2018-12-01T06:53:21.679Z,1018.95
2018-12-01T06:54:21.563Z,1018.94
2018-12-01T06:55:21.600Z,1018.95
2018-12-01T06:56:21.538Z,1018.92
2018-12-01T06:57:21.604Z,1018.89
2018-12-01T06:58:21.545Z,1018.92
2018-12-01T06:59:21.500Z,1018.94
2018-12-01T07:00:21.589Z,1018.92
2018-12-01T07:01:21.532Z,1018.85
2018-12-01T07:02:21.591Z,1018.85
2018-12-01T07:03:21.696Z,1018.86
2018-12-01T07:04:21.638Z,1018.81
2018-12-01T07:05:22.122Z,1018.83
2018-12-01T07:06:21.575Z,1018.81
2018-12-01T07:07:21.520Z,1018.84
2018-12-01T07:08:21.550Z,1018.88
2018-12-01T07:09:21.538Z,1018.82
2018-12-01T07:10:21.651Z,1018.83
2018-12-01T07:11:21.660Z,1018.86
2018-12-01T07:12:21.520Z,1018.82
2018-12-01T07:13:21.574Z,1018.82
2018-12-01T07:14:21.490Z,1018.82
2018-12-01T07:15:21.812Z,1018.84
2018-12-01T07:16:21.788Z,1018.84
2018-12-01T07:17:21.505Z,1018.83
2018-12-01T07:18:21.653Z,1018.86
2018-12-01T07:19:21.769Z,1018.84
2018-12-01T07:20:21.759Z,1018.85
2018-12-01T07:21:21.561Z,1018.86
2018-12-01T07:22:21.580Z,1018.86
2018-12-01T07:23:21.518Z,1018.79
2018-12-01T07:24:21.633Z,1018.8
2018-12-01T07:25:21.593Z,1018.85
2018-12-01T07:26:21.574Z,1018.82
2018-12-01T07:27:21.547Z,1018.82
2018-12-01T07:28:21.627Z,1018.8
2018-12-01T07:29:21.553Z,1018.8
2018-12-01T07:30:21.524Z,1018.87
2018-12-01T07:31:21.551Z,1018.87
2018-12-01T07:32:21.487Z,1018.92
2018-12-01T07:33:21.747Z,1018.92
2018-12-01T07:34:21.550Z,1018.97
2018-12-01T07:35:21.696Z,1018.93
2018-12-01T07:36:21.514Z,1018.96
2018-12-01T07:37:21.558Z,1018.92
2018-12-01T07:38:21.679Z,1018.94
2018-12-01T07:39:21.534Z,1018.9
2018-12-01T07:40:21.511Z,1018.89
2018-12-01T07:41:21.576Z,1018.91
2018-12-01T07:42:21.481Z,1018.88
2018-12-01T07:43:21.652Z,1018.86
2018-12-01T07:44:21.576Z,1018.85
2018-12-01T07:45:21.604Z,1018.92
2018-12-01T07:46:21.632Z,1018.91
2018-12-01T07:47:21.558Z,1018.87
2018-12-01T07:48:21.547Z,1018.87
2018-12-01T07:49:21.600Z,1018.86
2018-12-01T07:50:21.942Z,1018.85
2018-12-01T07:51:21.521Z,1018.91
2018-12-01T07:52:21.988Z,1018.86
2018-12-01T07:53:21.514Z,1018.88
2018-12-01T07:54:21.472Z,1018.86
2018-12-01T07:55:21.729Z,1018.87
2018-12-01T07:56:21.454Z,1018.83
2018-12-01T07:57:21.460Z,1018.79
2018-12-01T07:58:21.444Z,1018.77
2018-12-01T07:59:21.450Z,1018.8
2018-12-01T08:00:21.720Z,1018.76
2018-12-01T08:01:21.480Z,1018.76
2018-12-01T08:02:21.679Z,1018.84
2018-12-01T08:03:21.753Z,1018.77
2018-12-01T08:04:21.750Z,1018.78
2018-12-01T08:05:21.446Z,1018.73
2018-12-01T08:06:21.491Z,1018.73
2018-12-01T08:07:21.635Z,1018.75
2018-12-01T08:08:21.531Z,1018.76
2018-12-01T08:09:21.566Z,1018.76
2018-12-01T08:10:21.649Z,1018.7
2018-12-01T08:11:21.533Z,1018.69
2018-12-01T08:12:21.498Z,1018.77
2018-12-01T08:13:21.779Z,1018.73
2018-12-01T08:14:21.478Z,1018.71
2018-12-01T08:15:21.718Z,1018.72
2018-12-01T08:16:21.772Z,1018.69
2018-12-01T08:17:21.470Z,1018.67
2018-12-01T08:18:21.503Z,1018.68
2018-12-01T08:19:21.466Z,1018.68
2018-12-01T08:20:21.492Z,1018.7
2018-12-01T08:21:21.472Z,1018.7
2018-12-01T08:22:21.474Z,1018.7
2018-12-01T08:23:21.441Z,1018.7
2018-12-01T08:24:21.452Z,1018.7
2018-12-01T08:25:21.501Z,1018.65
2018-12-01T08:26:21.438Z,1018.63
2018-12-01T08:27:21.458Z,1018.6
2018-12-01T08:28:21.566Z,1018.55
2018-12-01T08:29:21.523Z,1018.61
2018-12-01T08:30:21.486Z,1018.58
2018-12-01T08:31:21.510Z,1018.57
2018-12-01T08:32:21.407Z,1018.58
2018-12-01T08:33:21.513Z,1018.55
2018-12-01T08:34:21.429Z,1018.56
2018-12-01T08:35:21.537Z,1018.55
2018-12-01T08:36:21.470Z,1018.52
2018-12-01T08:37:21.410Z,1018.57
2018-12-01T08:38:21.428Z,1018.58
2018-12-01T08:39:21.455Z,1018.62
2018-12-01T08:40:21.705Z,1018.63
2018-12-01T08:41:21.407Z,1018.63
2018-12-01T08:42:21.427Z,1018.64
2018-12-01T08:43:21.698Z,1018.59
2018-12-01T08:44:21.539Z,1018.67
2018-12-01T08:45:21.588Z,1018.61
2018-12-01T08:46:21.542Z,1018.63
2018-12-01T08:47:21.684Z,1018.63
2018-12-01T08:48:21.460Z,1018.62
2018-12-01T08:49:21.641Z,1018.66
2018-12-01T08:50:21.705Z,1018.62
2018-12-01T08:51:21.443Z,1018.62
2018-12-01T08:52:21.495Z,1018.58
2018-12-01T08:53:21.843Z,1018.61
2018-12-01T08:54:21.402Z,1018.59
2018-12-01T08:55:21.610Z,1018.59
2018-12-01T08:56:22.643Z,1018.61
2018-12-01T08:57:21.497Z,1018.6
2018-12-01T08:58:21.833Z,1018.63
2018-12-01T08:59:21.438Z,1018.63
2018-12-01T09:00:21.490Z,1018.65
2018-12-01T09:01:22.223Z,1018.63
2018-12-01T09:02:21.483Z,1018.68
2018-12-01T09:03:21.559Z,1018.69
2018-12-01T09:04:21.530Z,1018.68
2018-12-01T09:05:21.376Z,1018.68
2018-12-01T09:06:21.654Z,1018.71
2018-12-01T09:07:21.632Z,1018.67
2018-12-01T09:08:21.573Z,1018.66
2018-12-01T09:09:21.567Z,1018.71
2018-12-01T09:10:21.463Z,1018.78
2018-12-01T09:11:22.216Z,1018.77
2018-12-01T09:12:21.427Z,1018.76
2018-12-01T09:13:21.496Z,1018.78
2018-12-01T09:14:21.769Z,1018.81
2018-12-01T09:15:21.734Z,1018.8
2018-12-01T09:16:21.520Z,1018.77
2018-12-01T09:17:22.215Z,1018.78
2018-12-01T09:18:21.597Z,1018.78
2018-12-01T09:19:21.483Z,1018.78
2018-12-01T09:20:21.705Z,1018.86
2018-12-01T09:21:21.364Z,1018.82
2018-12-01T09:22:21.470Z,1018.83
2018-12-01T09:23:21.604Z,1018.83
2018-12-01T09:24:21.386Z,1018.78
2018-12-01T09:25:22.225Z,1018.79
2018-12-01T09:26:21.609Z,1018.81
2018-12-01T09:27:22.794Z,1018.82
2018-12-01T09:28:21.531Z,1018.8
2018-12-01T09:29:21.543Z,1018.78
2018-12-01T09:30:21.571Z,1018.8
2018-12-01T09:31:21.561Z,1018.76
2018-12-01T09:32:21.373Z,1018.7
2018-12-01T09:33:21.631Z,1018.77
2018-12-01T09:34:21.443Z,1018.73
2018-12-01T09:35:21.591Z,1018.69
2018-12-01T09:36:21.762Z,1018.78
2018-12-01T09:37:21.751Z,1018.76
2018-12-01T09:38:21.385Z,1018.79
2018-12-01T09:39:21.777Z,1018.81
2018-12-01T09:40:21.448Z,1018.86
2018-12-01T09:41:21.623Z,1018.84
2018-12-01T09:42:24.933Z,1018.88
2018-12-01T09:43:21.433Z,1018.89
2018-12-01T09:44:21.433Z,1018.85
2018-12-01T09:45:21.560Z,1018.88
2018-12-01T09:46:21.514Z,1018.85
2018-12-01T09:47:21.371Z,1018.85
2018-12-01T09:48:21.600Z,1018.91
2018-12-01T09:49:21.474Z,1018.89
2018-12-01T09:50:21.511Z,1018.91
2018-12-01T09:51:21.526Z,1018.85
2018-12-01T09:52:21.441Z,1018.88
2018-12-01T09:53:21.306Z,1018.84
2018-12-01T09:54:23.819Z,1018.82
2018-12-01T09:55:21.792Z,1018.83
2018-12-01T09:56:21.371Z,1018.81
2018-12-01T09:57:21.334Z,1018.81
2018-12-01T09:58:21.343Z,1018.83
2018-12-01T09:59:21.591Z,1018.84
2018-12-01T10:00:21.411Z,1018.82
2018-12-01T10:01:21.412Z,1018.83
2018-12-01T10:02:21.324Z,1018.77
2018-12-01T10:03:21.398Z,1018.8
2018-12-01T10:04:21.542Z,1018.77
2018-12-01T10:05:21.310Z,1018.76
2018-12-01T10:06:21.354Z,1018.79
2018-12-01T10:07:21.468Z,1018.76
2018-12-01T10:08:21.347Z,1018.82
2018-12-01T10:09:21.358Z,1018.81
2018-12-01T10:10:21.323Z,1018.81
2018-12-01T10:11:21.328Z,1018.78
2018-12-01T10:12:21.262Z,1018.78
2018-12-01T10:13:21.336Z,1018.75
2018-12-01T10:14:21.305Z,1018.72
2018-12-01T10:15:21.303Z,1018.72
2018-12-01T10:16:21.311Z,1018.72
2018-12-01T10:17:21.379Z,1018.75
2018-12-01T10:18:21.328Z,1018.79
2018-12-01T10:19:21.475Z,1018.73
2018-12-01T10:20:21.605Z,1018.69
2018-12-01T10:21:21.402Z,1018.65
2018-12-01T10:22:21.444Z,1018.6
2018-12-01T10:23:21.464Z,1018.53
2018-12-01T10:24:21.482Z,1018.48
2018-12-01T10:25:21.554Z,1018.4
2018-12-01T10:26:21.331Z,1018.48
2018-12-01T10:27:21.302Z,1018.49
2018-12-01T10:28:21.599Z,1018.48
2018-12-01T10:29:21.295Z,1018.54
2018-12-01T10:30:21.312Z,1018.46
2018-12-01T10:31:21.277Z,1018.44
2018-12-01T10:32:21.546Z,1018.4
2018-12-01T10:33:21.364Z,1018.4
2018-12-01T10:34:21.450Z,1018.36
2018-12-01T10:35:21.378Z,1018.34
2018-12-01T10:36:22.109Z,1018.3
2018-12-01T10:37:21.374Z,1018.33
2018-12-01T10:38:21.360Z,1018.34
2018-12-01T10:39:21.534Z,1018.34
2018-12-01T10:40:21.357Z,1018.36
2018-12-01T10:41:21.502Z,1018.31
2018-12-01T10:42:21.267Z,1018.35
2018-12-01T10:43:21.392Z,1018.3
2018-12-01T10:44:21.262Z,1018.27
2018-12-01T10:45:21.353Z,1018.25
2018-12-01T10:46:21.592Z,1018.18
2018-12-01T10:47:21.395Z,1018.12
2018-12-01T10:48:21.600Z,1018.16
2018-12-01T10:49:21.376Z,1018.12
2018-12-01T10:50:21.404Z,1018.1
2018-12-01T10:51:21.231Z,1018.13
2018-12-01T10:52:21.611Z,1018.14
2018-12-01T10:53:21.313Z,1018.13
2018-12-01T10:54:21.328Z,1018.18
2018-12-01T10:55:21.826Z,1018.17
2018-12-01T10:56:21.378Z,1018.15
2018-12-01T10:57:21.718Z,1018.13
2018-12-01T10:58:21.456Z,1018.12
2018-12-01T10:59:21.317Z,1018.08
2018-12-01T11:00:21.339Z,1018.11
2018-12-01T11:01:21.646Z,1018.08
2018-12-01T11:02:21.489Z,1018.1
2018-12-01T11:03:21.398Z,1018.04
2018-12-01T11:04:21.272Z,1018.05
2018-12-01T11:05:21.364Z,1018.06
2018-12-01T11:06:21.451Z,1018.06
2018-12-01T11:07:21.357Z,1018.07
2018-12-01T11:08:21.461Z,1018.03
2018-12-01T11:09:21.428Z,1018.08
2018-12-01T11:10:21.315Z,1018.03
2018-12-01T11:11:21.441Z,1018.04
2018-12-01T11:12:21.389Z,1018
2018-12-01T11:13:21.292Z,1017.99
2018-12-01T11:14:21.404Z,1018.03
2018-12-01T11:15:21.322Z,1018.01
2018-12-01T11:16:21.368Z,1018.04
2018-12-01T11:17:21.288Z,1018.01
2018-12-01T11:18:21.373Z,1018.02
2018-12-01T11:19:21.601Z,1018
2018-12-01T11:20:21.235Z,1018.01
2018-12-01T11:21:21.207Z,1017.96
2018-12-01T11:22:21.580Z,1017.99
2018-12-01T11:23:21.248Z,1017.98
2018-12-01T11:24:21.244Z,1018.02
2018-12-01T11:25:22.046Z,1017.99
2018-12-01T11:26:21.482Z,1017.97
2018-12-01T11:27:21.439Z,1017.94
2018-12-01T11:28:21.462Z,1017.96
2018-12-01T11:29:21.312Z,1017.91
2018-12-01T11:30:21.229Z,1017.95
2018-12-01T11:31:22.366Z,1017.94
2018-12-01T11:32:21.427Z,1017.95
2018-12-01T11:33:21.277Z,1017.96
2018-12-01T11:34:21.335Z,1018.02
2018-12-01T11:35:21.584Z,1018.01
2018-12-01T11:36:21.208Z,1017.99
2018-12-01T11:37:21.230Z,1018.08
2018-12-01T11:38:21.260Z,1018.05
2018-12-01T11:39:21.231Z,1018.03
2018-12-01T11:40:21.282Z,1017.98
2018-12-01T11:41:21.186Z,1017.98
2018-12-01T11:42:21.223Z,1017.97
2018-12-01T11:43:21.245Z,1017.92
2018-12-01T11:44:21.215Z,1017.93
2018-12-01T11:45:21.172Z,1017.86
2018-12-01T11:46:21.466Z,1017.84
2018-12-01T11:47:21.214Z,1017.85
2018-12-01T11:48:21.177Z,1017.79
2018-12-01T11:49:21.183Z,1017.81
2018-12-01T11:50:21.154Z,1017.77
2018-12-01T11:51:21.246Z,1017.77
2018-12-01T11:52:21.379Z,1017.73
2018-12-01T11:53:21.243Z,1017.71
2018-12-01T11:54:21.322Z,1017.74
2018-12-01T11:55:24.111Z,1017.69
2018-12-01T11:56:21.457Z,1017.72
2018-12-01T11:57:21.257Z,1017.75
2018-12-01T11:58:21.296Z,1017.79
2018-12-01T11:59:21.370Z,1017.77
2018-12-01T12:00:21.151Z,1017.82
2018-12-01T12:01:21.150Z,1017.76
2018-12-01T12:02:21.232Z,1017.71
2018-12-01T12:03:21.222Z,1017.68
2018-12-01T12:04:21.157Z,1017.76
2018-12-01T12:05:21.340Z,1017.7
2018-12-01T12:06:21.405Z,1017.62
2018-12-01T12:07:21.323Z,1017.67
2018-12-01T12:08:21.184Z,1017.68